sensor_id;sensor_type;location;lat;lon;timestamp;pressure;altitude;pressure_sealevel;temperature;humidity
61359;BME280;47228;46.762;23.598;2022-12-29T00:01:46;98091.75;;;-1.88;82.65
61359;BME280;47228;46.762;23.598;2022-12-29T00:04:14;98092.02;;;-1.87;82.69
61359;BME280;47228;46.762;23.598;2022-12-29T00:06:42;98093.79;;;-1.85;82.67
61359;BME280;47228;46.762;23.598;2022-12-29T00:09:12;98092.28;;;-1.84;82.70
61359;BME280;47228;46.762;23.598;2022-12-29T00:11:40;98088.65;;;-1.81;82.56
61359;BME280;47228;46.762;23.598;2022-12-29T00:14:09;98086.89;;;-1.78;82.65
61359;BME280;47228;46.762;23.598;2022-12-29T00:16:56;98084.94;;;-1.75;82.66
61359;BME280;47228;46.762;23.598;2022-12-29T00:19:24;98083.76;;;-1.73;82.60
61359;BME280;47228;46.762;23.598;2022-12-29T00:22:13;98081.38;;;-1.74;82.37
61359;BME280;47228;46.762;23.598;2022-12-29T00:25:00;98081.30;;;-1.75;82.33
61359;BME280;47228;46.762;23.598;2022-12-29T00:27:47;98087.14;;;-1.77;82.21
61359;BME280;47228;46.762;23.598;2022-12-29T00:30:35;98089.55;;;-1.79;82.24
61359;BME280;47228;46.762;23.598;2022-12-29T00:33:26;98088.11;;;-1.81;82.15
61359;BME280;47228;46.762;23.598;2022-12-29T00:38:51;98090.27;;;-1.85;81.93
61359;BME280;47228;46.762;23.598;2022-12-29T00:41:39;98090.30;;;-1.87;81.83
61359;BME280;47228;46.762;23.598;2022-12-29T00:44:25;98094.16;;;-1.91;81.89
61359;BME280;47228;46.762;23.598;2022-12-29T00:46:53;98093.83;;;-1.93;81.84
61359;BME280;47228;46.762;23.598;2022-12-29T00:49:21;98091.30;;;-1.97;81.75
61359;BME280;47228;46.762;23.598;2022-12-29T00:52:10;98092.02;;;-2.00;81.71
61359;BME280;47228;46.762;23.598;2022-12-29T00:54:40;98091.83;;;-2.05;81.56
61359;BME280;47228;46.762;23.598;2022-12-29T00:57:10;98091.72;;;-2.09;81.51
61359;BME280;47228;46.762;23.598;2022-12-29T00:59:39;98093.22;;;-2.10;81.70
61359;BME280;47228;46.762;23.598;2022-12-29T01:02:09;98089.63;;;-2.11;81.82
61359;BME280;47228;46.762;23.598;2022-12-29T01:04:38;98089.66;;;-2.12;81.83
61359;BME280;47228;46.762;23.598;2022-12-29T01:07:06;98088.29;;;-2.12;82.04
61359;BME280;47228;46.762;23.598;2022-12-29T01:09:34;98085.60;;;-2.11;82.19
61359;BME280;47228;46.762;23.598;2022-12-29T01:12:21;98080.50;;;-2.10;82.29
61359;BME280;47228;46.762;23.598;2022-12-29T01:15:09;98075.83;;;-2.10;82.21
61359;BME280;47228;46.762;23.598;2022-12-29T01:17:38;98078.31;;;-2.11;82.09
61359;BME280;47228;46.762;23.598;2022-12-29T01:20:06;98078.17;;;-2.11;81.96
61359;BME280;47228;46.762;23.598;2022-12-29T01:22:34;98078.86;;;-2.11;81.72
61359;BME280;47228;46.762;23.598;2022-12-29T01:25:03;98077.19;;;-2.12;81.44
61359;BME280;47228;46.762;23.598;2022-12-29T01:27:31;98079.15;;;-2.15;81.36
61359;BME280;47228;46.762;23.598;2022-12-29T01:29:59;98073.52;;;-2.19;81.34
61359;BME280;47228;46.762;23.598;2022-12-29T01:32:27;98072.08;;;-2.21;81.58
61359;BME280;47228;46.762;23.598;2022-12-29T01:34:55;98071.25;;;-2.22;81.57
61359;BME280;47228;46.762;23.598;2022-12-29T01:37:23;98070.13;;;-2.23;81.65
61359;BME280;47228;46.762;23.598;2022-12-29T01:39:51;98067.33;;;-2.25;81.73
61359;BME280;47228;46.762;23.598;2022-12-29T01:42:23;98064.63;;;-2.26;81.73
61359;BME280;47228;46.762;23.598;2022-12-29T01:44:57;98063.64;;;-2.28;81.72
61359;BME280;47228;46.762;23.598;2022-12-29T01:49:58;98052.64;;;-2.29;81.88
61359;BME280;47228;46.762;23.598;2022-12-29T01:52:30;98051.27;;;-2.29;81.59
61359;BME280;47228;46.762;23.598;2022-12-29T01:55:02;98050.61;;;-2.32;81.29
61359;BME280;47228;46.762;23.598;2022-12-29T01:57:37;98050.91;;;-2.37;81.30
61359;BME280;47228;46.762;23.598;2022-12-29T02:00:12;98050.69;;;-2.41;81.39
61359;BME280;47228;46.762;23.598;2022-12-29T02:02:53;98047.66;;;-2.45;81.54
61359;BME280;47228;46.762;23.598;2022-12-29T02:08:13;98046.94;;;-2.48;81.91
61359;BME280;47228;46.762;23.598;2022-12-29T02:10:42;98044.16;;;-2.48;82.17
61359;BME280;47228;46.762;23.598;2022-12-29T02:13:10;98044.60;;;-2.46;82.09
61359;BME280;47228;46.762;23.598;2022-12-29T02:33:21;98032.23;;;-2.59;81.64
61359;BME280;47228;46.762;23.598;2022-12-29T02:44:16;98037.06;;;-2.77;81.45
61359;BME280;47228;46.762;23.598;2022-12-29T02:46:58;98033.80;;;-2.80;81.87
61359;BME280;47228;46.762;23.598;2022-12-29T02:49:33;98032.65;;;-2.83;81.85
61359;BME280;47228;46.762;23.598;2022-12-29T02:52:07;98030.48;;;-2.87;82.00
61359;BME280;47228;46.762;23.598;2022-12-29T02:54:38;98031.48;;;-2.89;82.28
61359;BME280;47228;46.762;23.598;2022-12-29T03:00:14;98025.48;;;-2.90;82.33
61359;BME280;47228;46.762;23.598;2022-12-29T03:11:16;98040.59;;;-2.93;82.48
61359;BME280;47228;46.762;23.598;2022-12-29T03:17:06;98043.54;;;-2.94;82.42
61359;BME280;47228;46.762;23.598;2022-12-29T03:19:41;98042.69;;;-2.96;82.64
61359;BME280;47228;46.762;23.598;2022-12-29T03:22:27;98046.08;;;-2.98;82.76
61359;BME280;47228;46.762;23.598;2022-12-29T03:25:21;98045.27;;;-2.99;82.69
61359;BME280;47228;46.762;23.598;2022-12-29T03:28:01;98042.04;;;-2.97;82.93
61359;BME280;47228;46.762;23.598;2022-12-29T03:30:32;98044.73;;;-2.95;82.89
61359;BME280;47228;46.762;23.598;2022-12-29T03:33:04;98039.64;;;-2.98;82.56
61359;BME280;47228;46.762;23.598;2022-12-29T03:35:35;98043.73;;;-2.99;82.69
61359;BME280;47228;46.762;23.598;2022-12-29T03:38:25;98046.46;;;-2.99;82.70
61359;BME280;47228;46.762;23.598;2022-12-29T03:40:58;98045.55;;;-3.00;82.74
61359;BME280;47228;46.762;23.598;2022-12-29T03:43:28;98047.41;;;-3.03;82.62
61359;BME280;47228;46.762;23.598;2022-12-29T03:45:56;98046.20;;;-3.05;82.63
61359;BME280;47228;46.762;23.598;2022-12-29T03:48:24;98052.08;;;-3.08;82.58
61359;BME280;47228;46.762;23.598;2022-12-29T03:50:52;98051.86;;;-3.10;82.74
61359;BME280;47228;46.762;23.598;2022-12-29T03:53:20;98053.40;;;-3.09;82.67
61359;BME280;47228;46.762;23.598;2022-12-29T03:55:49;98049.48;;;-3.10;82.59
61359;BME280;47228;46.762;23.598;2022-12-29T03:58:17;98048.80;;;-3.11;82.64
61359;BME280;47228;46.762;23.598;2022-12-29T04:00:45;98047.21;;;-3.10;83.01
61359;BME280;47228;46.762;23.598;2022-12-29T04:03:12;98046.28;;;-3.09;82.98
61359;BME280;47228;46.762;23.598;2022-12-29T04:05:40;98041.10;;;-3.09;82.95
61359;BME280;47228;46.762;23.598;2022-12-29T04:08:08;98037.11;;;-3.09;82.80
61359;BME280;47228;46.762;23.598;2022-12-29T04:10:36;98038.59;;;-3.11;82.78
61359;BME280;47228;46.762;23.598;2022-12-29T04:13:04;98041.47;;;-3.13;82.59
61359;BME280;47228;46.762;23.598;2022-12-29T04:15:32;98045.30;;;-3.16;82.48
61359;BME280;47228;46.762;23.598;2022-12-29T04:18:00;98040.87;;;-3.17;82.49
61359;BME280;47228;46.762;23.598;2022-12-29T04:20:28;98042.94;;;-3.19;82.17
61359;BME280;47228;46.762;23.598;2022-12-29T04:23:15;98041.70;;;-3.25;82.27
61359;BME280;47228;46.762;23.598;2022-12-29T04:25:45;98038.39;;;-3.30;82.38
61359;BME280;47228;46.762;23.598;2022-12-29T04:28:16;98038.13;;;-3.34;82.40
61359;BME280;47228;46.762;23.598;2022-12-29T04:30:46;98032.93;;;-3.37;82.63
61359;BME280;47228;46.762;23.598;2022-12-29T04:33:14;98033.95;;;-3.39;82.77
61359;BME280;47228;46.762;23.598;2022-12-29T04:35:46;98034.21;;;-3.43;82.75
61359;BME280;47228;46.762;23.598;2022-12-29T04:38:14;98039.14;;;-3.47;82.83
61359;BME280;47228;46.762;23.598;2022-12-29T04:40:44;98036.30;;;-3.52;82.59
61359;BME280;47228;46.762;23.598;2022-12-29T04:43:13;98036.42;;;-3.56;82.60
61359;BME280;47228;46.762;23.598;2022-12-29T04:45:45;98038.23;;;-3.57;83.06
61359;BME280;47228;46.762;23.598;2022-12-29T04:48:14;98036.02;;;-3.56;83.30
61359;BME280;47228;46.762;23.598;2022-12-29T04:50:42;98031.67;;;-3.52;83.49
61359;BME280;47228;46.762;23.598;2022-12-29T04:53:10;98026.83;;;-3.49;83.52
61359;BME280;47228;46.762;23.598;2022-12-29T04:55:38;98020.73;;;-3.48;83.31
61359;BME280;47228;46.762;23.598;2022-12-29T04:58:06;98021.36;;;-3.51;83.12
61359;BME280;47228;46.762;23.598;2022-12-29T05:00:34;98022.88;;;-3.53;83.29
61359;BME280;47228;46.762;23.598;2022-12-29T05:03:02;98027.09;;;-3.54;83.40
61359;BME280;47228;46.762;23.598;2022-12-29T05:05:30;98022.89;;;-3.53;83.36
61359;BME280;47228;46.762;23.598;2022-12-29T05:07:58;98024.05;;;-3.52;83.29
61359;BME280;47228;46.762;23.598;2022-12-29T05:10:26;98022.38;;;-3.50;83.46
61359;BME280;47228;46.762;23.598;2022-12-29T05:12:54;98020.60;;;-3.49;83.11
61359;BME280;47228;46.762;23.598;2022-12-29T05:15:22;98020.23;;;-3.52;82.77
61359;BME280;47228;46.762;23.598;2022-12-29T05:17:50;98023.98;;;-3.57;82.71
61359;BME280;47228;46.762;23.598;2022-12-29T05:20:18;98031.06;;;-3.62;82.68
61359;BME280;47228;46.762;23.598;2022-12-29T05:22:46;98035.54;;;-3.67;83.03
61359;BME280;47228;46.762;23.598;2022-12-29T05:25:14;98036.89;;;-3.69;83.23
61359;BME280;47228;46.762;23.598;2022-12-29T05:27:42;98035.59;;;-3.71;83.19
61359;BME280;47228;46.762;23.598;2022-12-29T05:30:10;98037.67;;;-3.74;83.09
61359;BME280;47228;46.762;23.598;2022-12-29T05:32:38;98037.58;;;-3.75;83.28
61359;BME280;47228;46.762;23.598;2022-12-29T05:35:07;98038.39;;;-3.74;83.57
61359;BME280;47228;46.762;23.598;2022-12-29T05:37:36;98042.94;;;-3.72;83.63
61359;BME280;47228;46.762;23.598;2022-12-29T05:40:05;98048.27;;;-3.71;83.53
61359;BME280;47228;46.762;23.598;2022-12-29T05:42:33;98048.54;;;-3.70;83.77
61359;BME280;47228;46.762;23.598;2022-12-29T05:45:01;98042.97;;;-3.70;83.57
61359;BME280;47228;46.762;23.598;2022-12-29T05:47:28;98042.17;;;-3.71;83.52
61359;BME280;47228;46.762;23.598;2022-12-29T05:49:56;98040.98;;;-3.71;83.67
61359;BME280;47228;46.762;23.598;2022-12-29T05:52:24;98042.59;;;-3.72;83.71
61359;BME280;47228;46.762;23.598;2022-12-29T05:54:52;98043.31;;;-3.72;83.55
61359;BME280;47228;46.762;23.598;2022-12-29T05:57:20;98042.27;;;-3.72;83.73
61359;BME280;47228;46.762;23.598;2022-12-29T05:59:48;98050.44;;;-3.70;84.00
61359;BME280;47228;46.762;23.598;2022-12-29T06:02:16;98057.03;;;-3.68;84.13
61359;BME280;47228;46.762;23.598;2022-12-29T06:04:44;98055.89;;;-3.63;84.27
61359;BME280;47228;46.762;23.598;2022-12-29T06:07:12;98054.59;;;-3.59;84.19
61359;BME280;47228;46.762;23.598;2022-12-29T06:09:40;98061.30;;;-3.55;84.08
61359;BME280;47228;46.762;23.598;2022-12-29T06:12:08;98065.83;;;-3.53;83.82
61359;BME280;47228;46.762;23.598;2022-12-29T06:14:43;98076.53;;;-3.53;83.59
61359;BME280;47228;46.762;23.598;2022-12-29T06:17:11;98081.91;;;-3.53;83.43
61359;BME280;47228;46.762;23.598;2022-12-29T06:19:39;98086.06;;;-3.55;83.10
61359;BME280;47228;46.762;23.598;2022-12-29T06:22:07;98093.02;;;-3.59;83.14
61359;BME280;47228;46.762;23.598;2022-12-29T06:24:35;98097.75;;;-3.62;83.28
61359;BME280;47228;46.762;23.598;2022-12-29T06:27:03;98098.79;;;-3.65;83.36
61359;BME280;47228;46.762;23.598;2022-12-29T06:29:31;98100.71;;;-3.66;83.39
61359;BME280;47228;46.762;23.598;2022-12-29T06:31:59;98102.56;;;-3.68;83.12
61359;BME280;47228;46.762;23.598;2022-12-29T06:34:27;98104.48;;;-3.71;82.96
61359;BME280;47228;46.762;23.598;2022-12-29T06:36:55;98101.99;;;-3.73;83.09
61359;BME280;47228;46.762;23.598;2022-12-29T06:39:23;98103.00;;;-3.75;83.00
61359;BME280;47228;46.762;23.598;2022-12-29T06:41:52;98103.41;;;-3.76;83.15
61359;BME280;47228;46.762;23.598;2022-12-29T06:44:21;98102.45;;;-3.77;83.24
61359;BME280;47228;46.762;23.598;2022-12-29T06:46:50;98103.33;;;-3.78;83.20
61359;BME280;47228;46.762;23.598;2022-12-29T06:49:18;98105.66;;;-3.79;83.10
61359;BME280;47228;46.762;23.598;2022-12-29T06:51:46;98104.45;;;-3.82;83.08
61359;BME280;47228;46.762;23.598;2022-12-29T06:54:14;98104.80;;;-3.85;83.10
61359;BME280;47228;46.762;23.598;2022-12-29T06:56:43;98103.60;;;-3.82;83.38
61359;BME280;47228;46.762;23.598;2022-12-29T06:59:11;98104.34;;;-3.80;83.65
61359;BME280;47228;46.762;23.598;2022-12-29T07:01:39;98101.05;;;-3.77;83.78
61359;BME280;47228;46.762;23.598;2022-12-29T07:04:07;98098.71;;;-3.73;84.10
61359;BME280;47228;46.762;23.598;2022-12-29T07:06:35;98101.18;;;-3.68;84.10
61359;BME280;47228;46.762;23.598;2022-12-29T07:09:03;98109.73;;;-3.60;84.06
61359;BME280;47228;46.762;23.598;2022-12-29T07:11:32;98099.54;;;-3.52;84.24
61359;BME280;47228;46.762;23.598;2022-12-29T07:14:02;98094.33;;;-3.43;84.12
61359;BME280;47228;46.762;23.598;2022-12-29T07:16:31;98096.90;;;-3.34;84.03
61359;BME280;47228;46.762;23.598;2022-12-29T07:19:00;98096.63;;;-3.27;83.61
61359;BME280;47228;46.762;23.598;2022-12-29T07:21:28;98096.29;;;-3.22;83.55
61359;BME280;47228;46.762;23.598;2022-12-29T07:23:56;98093.34;;;-3.16;83.74
61359;BME280;47228;46.762;23.598;2022-12-29T07:26:28;98095.04;;;-3.13;83.42
61359;BME280;47228;46.762;23.598;2022-12-29T07:29:03;98092.56;;;-3.09;83.41
61359;BME280;47228;46.762;23.598;2022-12-29T07:31:32;98093.41;;;-3.04;83.54
61359;BME280;47228;46.762;23.598;2022-12-29T07:34:00;98096.98;;;-2.97;83.34
61359;BME280;47228;46.762;23.598;2022-12-29T07:36:28;98092.89;;;-2.93;83.03
61359;BME280;47228;46.762;23.598;2022-12-29T07:39:02;98089.04;;;-2.89;82.89
61359;BME280;47228;46.762;23.598;2022-12-29T07:41:30;98087.92;;;-2.85;83.22
61359;BME280;47228;46.762;23.598;2022-12-29T07:43:58;98089.14;;;-2.78;83.35
61359;BME280;47228;46.762;23.598;2022-12-29T07:46:26;98088.01;;;-2.71;83.35
61359;BME280;47228;46.762;23.598;2022-12-29T07:49:14;98083.11;;;-2.62;83.30
61359;BME280;47228;46.762;23.598;2022-12-29T07:51:42;98086.08;;;-2.57;83.08
61359;BME280;47228;46.762;23.598;2022-12-29T07:54:10;98090.90;;;-2.54;82.98
61359;BME280;47228;46.762;23.598;2022-12-29T07:56:40;98089.61;;;-2.50;83.11
61359;BME280;47228;46.762;23.598;2022-12-29T07:59:08;98084.17;;;-2.41;83.37
61359;BME280;47228;46.762;23.598;2022-12-29T08:01:36;98080.20;;;-2.34;83.11
61359;BME280;47228;46.762;23.598;2022-12-29T08:04:04;98071.81;;;-2.30;82.60
61359;BME280;47228;46.762;23.598;2022-12-29T08:06:32;98070.13;;;-2.26;82.63
61359;BME280;47228;46.762;23.598;2022-12-29T08:09:00;98070.73;;;-2.22;82.58
61359;BME280;47228;46.762;23.598;2022-12-29T08:11:43;98072.69;;;-2.17;82.59
61359;BME280;47228;46.762;23.598;2022-12-29T08:14:11;98073.71;;;-2.17;82.18
61359;BME280;47228;46.762;23.598;2022-12-29T08:16:39;98069.27;;;-2.15;82.25
61359;BME280;47228;46.762;23.598;2022-12-29T08:19:10;98068.42;;;-2.13;82.44
61359;BME280;47228;46.762;23.598;2022-12-29T08:21:39;98066.92;;;-2.09;82.52
61359;BME280;47228;46.762;23.598;2022-12-29T08:24:08;98063.25;;;-2.06;82.48
61359;BME280;47228;46.762;23.598;2022-12-29T08:26:36;98061.39;;;-2.04;82.35
61359;BME280;47228;46.762;23.598;2022-12-29T08:29:04;98062.54;;;-2.03;82.39
61359;BME280;47228;46.762;23.598;2022-12-29T08:31:32;98059.52;;;-2.02;82.41
61359;BME280;47228;46.762;23.598;2022-12-29T08:34:00;98065.88;;;-2.01;82.21
61359;BME280;47228;46.762;23.598;2022-12-29T08:36:31;98064.83;;;-2.01;82.07
61359;BME280;47228;46.762;23.598;2022-12-29T08:38:59;98059.95;;;-2.01;81.89
61359;BME280;47228;46.762;23.598;2022-12-29T08:41:27;98059.87;;;-2.00;81.97
61359;BME280;47228;46.762;23.598;2022-12-29T08:43:55;98054.86;;;-2.00;81.77
61359;BME280;47228;46.762;23.598;2022-12-29T08:46:26;98054.00;;;-2.00;81.94
61359;BME280;47228;46.762;23.598;2022-12-29T08:48:54;98056.23;;;-2.00;81.78
61359;BME280;47228;46.762;23.598;2022-12-29T08:51:23;98061.77;;;-2.00;81.88
61359;BME280;47228;46.762;23.598;2022-12-29T08:53:51;98059.90;;;-1.98;82.15
61359;BME280;47228;46.762;23.598;2022-12-29T08:56:20;98057.83;;;-1.96;81.97
61359;BME280;47228;46.762;23.598;2022-12-29T08:58:48;98055.89;;;-1.97;81.75
61359;BME280;47228;46.762;23.598;2022-12-29T09:01:16;98055.45;;;-1.96;81.92
61359;BME280;47228;46.762;23.598;2022-12-29T09:03:44;98050.92;;;-1.93;82.05
61359;BME280;47228;46.762;23.598;2022-12-29T09:06:33;98045.60;;;-1.89;82.25
61359;BME280;47228;46.762;23.598;2022-12-29T09:09:07;98037.98;;;-1.86;82.24
61359;BME280;47228;46.762;23.598;2022-12-29T09:11:35;98025.83;;;-1.84;82.34
61359;BME280;47228;46.762;23.598;2022-12-29T09:14:03;98019.11;;;-1.83;82.21
61359;BME280;47228;46.762;23.598;2022-12-29T09:16:31;98014.48;;;-1.81;82.22
61359;BME280;47228;46.762;23.598;2022-12-29T09:19:01;98016.27;;;-1.79;82.16
61359;BME280;47228;46.762;23.598;2022-12-29T09:21:29;98011.20;;;-1.78;82.08
61359;BME280;47228;46.762;23.598;2022-12-29T09:23:57;98006.36;;;-1.76;82.42
61359;BME280;47228;46.762;23.598;2022-12-29T09:26:25;98000.77;;;-1.74;82.40
61359;BME280;47228;46.762;23.598;2022-12-29T09:28:53;97999.23;;;-1.71;82.26
61359;BME280;47228;46.762;23.598;2022-12-29T09:31:21;98003.37;;;-1.68;82.43
61359;BME280;47228;46.762;23.598;2022-12-29T09:33:50;98005.53;;;-1.64;82.41
61359;BME280;47228;46.762;23.598;2022-12-29T09:36:18;98002.38;;;-1.61;82.62
61359;BME280;47228;46.762;23.598;2022-12-29T09:38:46;98003.62;;;-1.60;82.34
61359;BME280;47228;46.762;23.598;2022-12-29T09:41:20;98000.64;;;-1.57;82.03
61359;BME280;47228;46.762;23.598;2022-12-29T09:46:45;97986.15;;;-1.48;82.09
61359;BME280;47228;46.762;23.598;2022-12-29T09:49:43;97981.23;;;-1.48;81.72
61359;BME280;47228;46.762;23.598;2022-12-29T09:52:18;97984.55;;;-1.46;81.88
61359;BME280;47228;46.762;23.598;2022-12-29T10:02:48;97977.49;;;-1.34;81.80
61359;BME280;47228;46.762;23.598;2022-12-29T10:05:43;97977.27;;;-1.29;81.82
61359;BME280;47228;46.762;23.598;2022-12-29T10:08:29;97982.33;;;-1.22;82.16
61359;BME280;47228;46.762;23.598;2022-12-29T10:24:34;97990.30;;;-0.95;81.41
61359;BME280;47228;46.762;23.598;2022-12-29T10:27:10;97987.88;;;-0.90;81.38
61359;BME280;47228;46.762;23.598;2022-12-29T10:29:43;97989.13;;;-0.84;81.40
61359;BME280;47228;46.762;23.598;2022-12-29T10:34:52;97991.45;;;-0.71;81.21
61359;BME280;47228;46.762;23.598;2022-12-29T10:40:51;97987.59;;;-0.56;81.03
61359;BME280;47228;46.762;23.598;2022-12-29T10:45:54;97983.05;;;-0.44;81.13
61359;BME280;47228;46.762;23.598;2022-12-29T10:48:32;97977.66;;;-0.40;81.04
61359;BME280;47228;46.762;23.598;2022-12-29T10:51:04;97972.86;;;-0.34;80.96
61359;BME280;47228;46.762;23.598;2022-12-29T10:56:40;97971.48;;;-0.18;80.65
61359;BME280;47228;46.762;23.598;2022-12-29T10:59:23;97970.46;;;-0.12;80.56
61359;BME280;47228;46.762;23.598;2022-12-29T11:01:55;97965.83;;;-0.03;80.74
61359;BME280;47228;46.762;23.598;2022-12-29T11:07:07;97961.58;;;0.13;80.76
61359;BME280;47228;46.762;23.598;2022-12-29T11:09:44;97959.82;;;0.20;80.64
61359;BME280;47228;46.762;23.598;2022-12-29T11:12:27;97962.59;;;0.27;80.60
61359;BME280;47228;46.762;23.598;2022-12-29T11:15:11;97954.89;;;0.34;80.59
61359;BME280;47228;46.762;23.598;2022-12-29T11:17:58;97947.86;;;0.41;80.48
61359;BME280;47228;46.762;23.598;2022-12-29T11:22:55;97942.34;;;0.58;80.59
61359;BME280;47228;46.762;23.598;2022-12-29T11:25:23;97941.87;;;0.68;80.34
61359;BME280;47228;46.762;23.598;2022-12-29T11:28:14;97941.72;;;0.79;80.50
61359;BME280;47228;46.762;23.598;2022-12-29T11:30:42;97939.98;;;0.90;80.11
61359;BME280;47228;46.762;23.598;2022-12-29T11:33:10;97931.65;;;1.00;79.75
61359;BME280;47228;46.762;23.598;2022-12-29T11:35:42;97931.05;;;1.09;79.58
61359;BME280;47228;46.762;23.598;2022-12-29T11:38:39;97931.88;;;1.20;79.26
61359;BME280;47228;46.762;23.598;2022-12-29T11:41:13;97929.60;;;1.31;79.06
61359;BME280;47228;46.762;23.598;2022-12-29T11:43:43;97926.12;;;1.39;79.14
61359;BME280;47228;46.762;23.598;2022-12-29T11:46:19;97922.45;;;1.48;78.85
61359;BME280;47228;46.762;23.598;2022-12-29T11:48:48;97916.56;;;1.55;78.65
61359;BME280;47228;46.762;23.598;2022-12-29T11:51:26;97919.30;;;1.62;78.50
61359;BME280;47228;46.762;23.598;2022-12-29T11:54:00;97917.85;;;1.71;77.96
61359;BME280;47228;46.762;23.598;2022-12-29T11:56:39;97913.80;;;1.80;77.50
61359;BME280;47228;46.762;23.598;2022-12-29T12:01:57;97909.27;;;1.94;77.04
61359;BME280;47228;46.762;23.598;2022-12-29T12:04:30;97913.08;;;2.00;76.92
61359;BME280;47228;46.762;23.598;2022-12-29T12:07:12;97913.70;;;2.07;77.11
61359;BME280;47228;46.762;23.598;2022-12-29T12:09:51;97913.52;;;2.13;76.56
61359;BME280;47228;46.762;23.598;2022-12-29T12:12:35;97906.10;;;2.16;75.97
61359;BME280;47228;46.762;23.598;2022-12-29T12:15:09;97906.27;;;2.18;75.85
61359;BME280;47228;46.762;23.598;2022-12-29T12:17:51;97902.91;;;2.21;75.60
61359;BME280;47228;46.762;23.598;2022-12-29T12:20:45;97891.57;;;2.23;75.37
61359;BME280;47228;46.762;23.598;2022-12-29T12:29:01;97878.91;;;2.26;75.13
61359;BME280;47228;46.762;23.598;2022-12-29T12:31:43;97876.73;;;2.30;75.11
61359;BME280;47228;46.762;23.598;2022-12-29T12:34:24;97873.95;;;2.36;75.26
61359;BME280;47228;46.762;23.598;2022-12-29T12:51:18;97865.96;;;2.49;73.85
61359;BME280;47228;46.762;23.598;2022-12-29T12:59:52;97868.29;;;2.49;72.93
61359;BME280;47228;46.762;23.598;2022-12-29T13:25:16;97890.74;;;2.24;72.33
61359;BME280;47228;46.762;23.598;2022-12-29T13:27:53;97888.95;;;2.23;72.33
61359;BME280;47228;46.762;23.598;2022-12-29T13:33:38;97881.33;;;2.20;72.23
61359;BME280;47228;46.762;23.598;2022-12-29T13:39:02;97881.73;;;2.13;71.98
61359;BME280;47228;46.762;23.598;2022-12-29T13:41:53;97876.85;;;2.09;72.11
61359;BME280;47228;46.762;23.598;2022-12-29T13:47:26;97876.69;;;1.99;72.30
61359;BME280;47228;46.762;23.598;2022-12-29T13:49:57;97882.48;;;1.94;72.54
61359;BME280;47228;46.762;23.598;2022-12-29T13:53:00;97884.13;;;1.90;72.55
61359;BME280;47228;46.762;23.598;2022-12-29T14:00:58;97892.30;;;1.76;72.85
61359;BME280;47228;46.762;23.598;2022-12-29T14:06:31;97892.55;;;1.73;73.20
61359;BME280;47228;46.762;23.598;2022-12-29T14:09:04;97892.80;;;1.72;73.25
61359;BME280;47228;46.762;23.598;2022-12-29T14:11:35;97894.62;;;1.71;73.03
61359;BME280;47228;46.762;23.598;2022-12-29T14:14:23;97893.80;;;1.70;73.09
61359;BME280;47228;46.762;23.598;2022-12-29T14:16:53;97892.05;;;1.68;73.03
61359;BME280;47228;46.762;23.598;2022-12-29T14:19:32;97887.48;;;1.65;72.79
61359;BME280;47228;46.762;23.598;2022-12-29T14:22:04;97884.44;;;1.59;72.63
61359;BME280;47228;46.762;23.598;2022-12-29T14:27:22;97883.63;;;1.49;72.72
61359;BME280;47228;46.762;23.598;2022-12-29T14:29:50;97885.98;;;1.44;72.66
61359;BME280;47228;46.762;23.598;2022-12-29T14:34:57;97890.69;;;1.31;72.56
61359;BME280;47228;46.762;23.598;2022-12-29T14:37:29;97885.49;;;1.22;72.69
61359;BME280;47228;46.762;23.598;2022-12-29T14:40:17;97880.05;;;1.14;73.39
61359;BME280;47228;46.762;23.598;2022-12-29T14:42:47;97876.45;;;1.09;73.60
61359;BME280;47228;46.762;23.598;2022-12-29T14:47:46;97872.39;;;1.06;74.03
61359;BME280;47228;46.762;23.598;2022-12-29T14:50:22;97874.30;;;1.06;74.16
61359;BME280;47228;46.762;23.598;2022-12-29T14:53:02;97875.10;;;1.07;74.33
61359;BME280;47228;46.762;23.598;2022-12-29T14:55:47;97877.40;;;1.06;74.09
61359;BME280;47228;46.762;23.598;2022-12-29T14:58:22;97874.24;;;1.04;74.19
61359;BME280;47228;46.762;23.598;2022-12-29T15:00:54;97873.37;;;1.02;74.21
61359;BME280;47228;46.762;23.598;2022-12-29T15:03:43;97868.80;;;0.99;74.00
61359;BME280;47228;46.762;23.598;2022-12-29T15:06:14;97866.30;;;0.95;74.27
61359;BME280;47228;46.762;23.598;2022-12-29T15:08:50;97865.88;;;0.92;74.26
61359;BME280;47228;46.762;23.598;2022-12-29T15:11:21;97864.20;;;0.86;74.27
61359;BME280;47228;46.762;23.598;2022-12-29T15:13:50;97858.41;;;0.83;74.35
61359;BME280;47228;46.762;23.598;2022-12-29T15:18:51;97848.59;;;0.73;74.72
61359;BME280;47228;46.762;23.598;2022-12-29T15:21:26;97851.70;;;0.69;74.85
61359;BME280;47228;46.762;23.598;2022-12-29T15:23:55;97854.27;;;0.65;74.74
61359;BME280;47228;46.762;23.598;2022-12-29T15:26:36;97855.34;;;0.63;74.77
61359;BME280;47228;46.762;23.598;2022-12-29T15:29:30;97858.48;;;0.61;74.90
61359;BME280;47228;46.762;23.598;2022-12-29T15:32:01;97860.86;;;0.55;74.97
61359;BME280;47228;46.762;23.598;2022-12-29T15:34:38;97859.98;;;0.48;75.19
61359;BME280;47228;46.762;23.598;2022-12-29T15:37:07;97857.38;;;0.45;75.31
61359;BME280;47228;46.762;23.598;2022-12-29T15:39:35;97855.38;;;0.43;75.48
61359;BME280;47228;46.762;23.598;2022-12-29T15:45:05;97856.13;;;0.34;75.39
61359;BME280;47228;46.762;23.598;2022-12-29T15:47:39;97858.66;;;0.29;75.52
61359;BME280;47228;46.762;23.598;2022-12-29T15:52:46;97863.36;;;0.19;75.65
61359;BME280;47228;46.762;23.598;2022-12-29T15:55:41;97866.33;;;0.15;75.86
61359;BME280;47228;46.762;23.598;2022-12-29T15:58:53;97867.60;;;0.10;75.98
61359;BME280;47228;46.762;23.598;2022-12-29T16:01:33;97869.28;;;0.06;76.32
61359;BME280;47228;46.762;23.598;2022-12-29T16:04:06;97869.38;;;0.05;76.53
61359;BME280;47228;46.762;23.598;2022-12-29T16:06:45;97870.09;;;0.07;76.91
61359;BME280;47228;46.762;23.598;2022-12-29T16:09:34;97876.52;;;0.07;76.91
61359;BME280;47228;46.762;23.598;2022-12-29T16:12:05;97874.93;;;0.08;77.14
61359;BME280;47228;46.762;23.598;2022-12-29T16:14:46;97875.52;;;0.11;77.38
61359;BME280;47228;46.762;23.598;2022-12-29T16:17:17;97872.30;;;0.14;77.26